Time;durP1;ratioP1;P1;durP2;ratioP2;P2;SDS_P1;SDS_P2;PMS_P1;PMS_P2;Temp;Humidity;BMP_temperature;BMP_pressure;BME280_temperature;BME280_humidity;BME280_pressure;Samples;Min_cycle;Max_cycle;Signal;HPM_P1;HPM_P2
2021/04/03 00:00:31;;;;;;;25.67;7.80;;;5.40;99.90;;;;;;3537753;40;20069;-70
2021/04/03 00:02:58;;;;;;;23.85;8.18;;;5.50;99.90;;;;;;3539132;40;20183;-70
2021/04/03 00:05:26;;;;;;;24.73;7.63;;;5.60;99.90;;;;;;3543865;40;20164;-70
2021/04/03 00:07:52;;;;;;;19.42;7.68;;;5.60;99.90;;;;;;3546327;40;20458;-70
2021/04/03 00:10:22;;;;;;;29.55;7.50;;;5.60;99.90;;;;;;3543593;40;20109;-69
2021/04/03 00:12:48;;;;;;;29.67;9.20;;;5.70;99.90;;;;;;3548619;40;20413;-70
2021/04/03 00:15:14;;;;;;;27.38;9.27;;;5.70;99.90;;;;;;3538298;40;20064;-70
2021/04/03 00:17:40;;;;;;;27.70;8.35;;;5.70;99.90;;;;;;3545291;40;20416;-70
2021/04/03 00:20:09;;;;;;;22.15;8.77;;;5.70;99.90;;;;;;3544908;40;20327;-70
2021/04/03 00:22:34;;;;;;;32.03;8.63;;;5.70;99.90;;;;;;3540518;40;20188;-70
2021/04/03 00:25:00;;;;;;;27.25;8.13;;;5.80;99.90;;;;;;3539880;40;20404;-70
2021/04/03 00:27:26;;;;;;;24.63;7.78;;;5.70;99.90;;;;;;3542253;40;20200;-70
2021/04/03 00:29:52;;;;;;;27.73;8.63;;;5.50;99.90;;;;;;3544220;40;20070;-70
2021/04/03 00:32:17;;;;;;;29.08;8.57;;;5.60;99.90;;;;;;3547199;40;20070;-69
2021/04/03 00:34:43;;;;;;;27.33;8.93;;;5.50;99.90;;;;;;3546003;40;20062;-70
2021/04/03 00:37:09;;;;;;;30.10;7.68;;;5.50;99.90;;;;;;3543456;40;20658;-70
2021/04/03 00:39:35;;;;;;;29.20;8.95;;;5.60;99.90;;;;;;3540138;40;20058;-70
2021/04/03 00:42:21;;;;;;;25.88;8.48;;;5.60;99.90;;;;;;3539004;40;20399;-69
2021/04/03 00:44:48;;;;;;;33.85;9.07;;;5.70;99.90;;;;;;3543837;40;20070;-69
2021/04/03 00:47:17;;;;;;;37.28;8.75;;;5.70;99.90;;;;;;3546192;40;20422;-69
2021/04/03 00:49:46;;;;;;;32.22;9.40;;;5.60;99.90;;;;;;3539147;40;20102;-70
2021/04/03 00:52:13;;;;;;;29.10;8.90;;;5.60;99.90;;;;;;3540570;40;20062;-70
2021/04/03 00:54:42;;;;;;;36.17;9.35;;;5.50;99.90;;;;;;3545268;40;20054;-70
2021/04/03 00:57:09;;;;;;;33.75;9.88;;;5.50;99.90;;;;;;3547303;40;20062;-70
2021/04/03 00:59:36;;;;;;;32.80;9.40;;;5.40;99.90;;;;;;3544934;40;20105;-69
2021/04/03 01:02:04;;;;;;;38.60;10.02;;;5.40;99.90;;;;;;3540376;40;20153;-69
2021/04/03 01:04:34;;;;;;;24.77;8.90;;;5.20;99.90;;;;;;3539490;40;20510;-70
2021/04/03 01:07:03;;;;;;;30.42;8.85;;;5.10;99.90;;;;;;3543432;40;20486;-70
2021/04/03 01:09:37;;;;;;;32.40;10.65;;;5.00;99.90;;;;;;3543142;40;20407;-70
2021/04/03 01:12:35;;;;;;;31.27;9.32;;;4.90;99.90;;;;;;3540142;40;20073;-70
2021/04/03 01:15:16;;;;;;;32.67;10.77;;;4.70;99.90;;;;;;3545483;40;20063;-70
2021/04/03 01:18:01;;;;;;;28.75;8.85;;;4.60;99.90;;;;;;3543174;40;20073;-70
2021/04/03 01:20:39;;;;;;;30.52;9.15;;;4.60;99.90;;;;;;3538306;40;20051;-70
2021/04/03 01:23:24;;;;;;;33.03;9.88;;;4.60;99.90;;;;;;3544128;40;20062;-70
2021/04/03 01:26:15;;;;;;;32.22;10.23;;;4.50;99.90;;;;;;3542444;40;20747;-69
2021/04/03 01:29:23;;;;;;;40.10;10.35;;;4.40;99.90;;;;;;3540436;40;20080;-69
2021/04/03 01:31:51;;;;;;;39.80;10.40;;;4.30;99.90;;;;;;3545387;40;20070;-69
2021/04/03 01:34:21;;;;;;;42.20;12.15;;;4.30;99.90;;;;;;3544692;40;20083;-69
2021/04/03 01:36:52;;;;;;;37.97;10.00;;;4.30;99.90;;;;;;3539498;40;20196;-70
2021/04/03 01:39:23;;;;;;;41.20;9.95;;;4.20;99.90;;;;;;3545599;40;20293;-70
2021/04/03 01:41:53;;;;;;;32.72;9.48;;;4.10;99.90;;;;;;3546651;40;20167;-70
2021/04/03 01:44:24;;;;;;;36.70;10.18;;;4.00;99.90;;;;;;3544029;40;20167;-70
2021/04/03 01:46:52;;;;;;;29.08;9.95;;;3.90;99.90;;;;;;3544712;40;20811;-70
2021/04/03 01:49:22;;;;;;;32.42;9.85;;;3.90;99.90;;;;;;3543684;40;20162;-69
2021/04/03 01:51:49;;;;;;;37.53;10.10;;;3.90;99.90;;;;;;3541518;40;20089;-70
2021/04/03 01:54:21;;;;;;;36.35;10.15;;;3.80;99.90;;;;;;3545964;40;20173;-70
2021/04/03 01:56:52;;;;;;;28.90;9.93;;;3.90;99.90;;;;;;3551397;40;20544;-70
2021/04/03 01:59:24;;;;;;;32.80;10.35;;;3.80;99.90;;;;;;3542010;40;20070;-70
2021/04/03 02:01:55;;;;;;;44.00;10.80;;;3.70;99.90;;;;;;3538013;40;20075;-70
2021/04/03 02:04:22;;;;;;;36.33;10.75;;;3.70;99.90;;;;;;3539565;40;20165;-70
2021/04/03 02:06:50;;;;;;;40.40;10.57;;;3.60;99.90;;;;;;3542444;40;20180;-70
2021/04/03 02:09:40;;;;;;;38.13;10.05;;;3.60;99.90;;;;;;3551545;40;20324;-70
2021/04/03 02:12:18;;;;;;;36.28;9.45;;;3.50;99.90;;;;;;3552587;40;20073;-70
2021/04/03 02:14:58;;;;;;;35.70;10.60;;;3.40;99.90;;;;;;3542583;40;20156;-70
2021/04/03 02:17:28;;;;;;;41.70;11.85;;;3.40;99.90;;;;;;3539835;40;20059;-70
2021/04/03 02:19:54;;;;;;;38.58;10.13;;;3.40;99.90;;;;;;3543030;40;20169;-70
2021/04/03 02:22:21;;;;;;;34.35;10.38;;;3.40;99.90;;;;;;3540437;40;20094;-71
2021/04/03 02:24:55;;;;;;;39.10;10.95;;;3.30;99.90;;;;;;3548219;40;20055;-70
2021/04/03 02:27:22;;;;;;;42.70;10.38;;;3.20;99.90;;;;;;3537836;40;20146;-70
2021/04/03 02:29:48;;;;;;;43.92;11.25;;;3.20;99.90;;;;;;3539542;40;20089;-69
2021/04/03 02:32:16;;;;;;;34.10;10.02;;;3.20;99.90;;;;;;3547957;40;20647;-70
2021/04/03 02:34:42;;;;;;;25.80;9.55;;;3.20;99.90;;;;;;3539206;40;20118;-70
2021/04/03 02:37:07;;;;;;;36.95;10.50;;;3.10;99.90;;;;;;3538723;40;20169;-70
2021/04/03 02:39:35;;;;;;;30.67;9.60;;;3.10;99.90;;;;;;3538363;40;20086;-66
2021/04/03 02:42:13;;;;;;;35.85;10.38;;;3.10;99.90;;;;;;3539660;40;20074;-65
2021/04/03 02:44:48;;;;;;;39.38;10.05;;;3.00;99.90;;;;;;3541064;40;20054;-65
2021/04/03 02:47:21;;;;;;;47.05;12.75;;;3.00;99.90;;;;;;3546007;40;20080;-65
2021/04/03 02:49:58;;;;;;;38.08;9.70;;;3.00;99.90;;;;;;3535595;40;20073;-65
2021/04/03 02:52:28;;;;;;;34.13;10.05;;;2.90;99.90;;;;;;3532469;40;20176;-65
2021/04/03 02:54:56;;;;;;;29.27;9.68;;;2.80;99.90;;;;;;3542180;40;20195;-65
2021/04/03 02:57:25;;;;;;;35.42;10.40;;;2.80;99.90;;;;;;3537457;40;20614;-65
2021/04/03 02:59:54;;;;;;;33.85;9.93;;;2.80;99.90;;;;;;3547979;40;20069;-65
2021/04/03 03:02:23;;;;;;;37.47;10.85;;;2.90;99.90;;;;;;3540895;40;20095;-65
2021/04/03 03:04:52;;;;;;;40.95;10.60;;;3.00;99.90;;;;;;3538911;40;20437;-65
2021/04/03 03:07:21;;;;;;;56.20;11.00;;;3.00;99.90;;;;;;3548715;40;20529;-65
2021/04/03 03:09:50;;;;;;;48.72;11.73;;;3.00;99.90;;;;;;3549198;40;20090;-65
2021/04/03 03:12:22;;;;;;;45.13;12.05;;;2.90;99.90;;;;;;3540416;40;20077;-65
2021/04/03 03:14:50;;;;;;;46.47;10.65;;;2.90;99.90;;;;;;3537429;40;20157;-65
2021/04/03 03:17:17;;;;;;;34.63;10.70;;;2.90;99.90;;;;;;3541963;40;20178;-65
2021/04/03 03:19:50;;;;;;;41.15;11.27;;;3.00;99.90;;;;;;3544333;40;20079;-65
2021/04/03 03:22:17;;;;;;;41.00;11.82;;;2.90;99.90;;;;;;3546790;40;20177;-65
2021/04/03 03:24:44;;;;;;;44.60;10.60;;;2.90;99.90;;;;;;3543715;40;20104;-65
2021/04/03 03:27:13;;;;;;;46.22;11.25;;;2.80;99.90;;;;;;3542368;40;20067;-65
2021/04/03 03:29:41;;;;;;;40.08;11.35;;;2.80;99.90;;;;;;3538575;40;20789;-67
2021/04/03 03:32:08;;;;;;;49.65;11.35;;;2.90;99.90;;;;;;3536130;40;20268;-65
2021/04/03 03:34:40;;;;;;;33.97;10.25;;;2.90;99.90;;;;;;3536162;40;20108;-65
2021/04/03 03:37:09;;;;;;;48.33;11.63;;;2.80;99.90;;;;;;3545208;40;20059;-65
2021/04/03 03:39:43;;;;;;;33.75;9.35;;;2.70;99.90;;;;;;3542804;40;20090;-66
2021/04/03 03:42:13;;;;;;;43.90;10.23;;;2.70;99.90;;;;;;3537886;40;20075;-65
2021/04/03 03:44:40;;;;;;;37.38;10.93;;;2.60;99.90;;;;;;3537904;40;20062;-65
2021/04/03 03:47:07;;;;;;;48.53;11.80;;;2.60;99.90;;;;;;3544925;40;20064;-66
2021/04/03 03:49:34;;;;;;;42.90;10.05;;;2.50;99.90;;;;;;3542854;40;20153;-65
2021/04/03 03:52:03;;;;;;;39.92;10.82;;;2.50;99.90;;;;;;3545079;40;20100;-65
2021/04/03 03:54:29;;;;;;;30.42;9.80;;;2.50;99.90;;;;;;3541983;40;20069;-65
2021/04/03 03:56:55;;;;;;;32.22;9.45;;;2.40;99.90;;;;;;3542473;40;20752;-65
2021/04/03 03:59:22;;;;;;;36.00;10.32;;;2.30;99.90;;;;;;3542296;40;20054;-65
2021/04/03 04:01:48;;;;;;;42.13;10.82;;;2.40;99.90;;;;;;3541411;40;20145;-65
2021/04/03 04:04:14;;;;;;;32.85;9.30;;;2.30;99.90;;;;;;3540274;40;20066;-65
2021/04/03 04:06:40;;;;;;;25.33;8.95;;;2.20;99.90;;;;;;3540325;40;20078;-65
2021/04/03 04:09:07;;;;;;;24.63;9.00;;;2.10;99.90;;;;;;3535373;40;20308;-65
2021/04/03 04:11:38;;;;;;;31.00;8.73;;;2.20;99.90;;;;;;3540940;40;20080;-65
2021/04/03 04:14:14;;;;;;;;;;;2.20;99.90;;;;;;3543178;40;20062;-65
2021/04/03 04:16:47;;;;;;;23.98;8.63;;;2.20;99.90;;;;;;3534854;40;20040;-65
2021/04/03 04:19:13;;;;;;;29.80;9.70;;;2.20;99.90;;;;;;3540737;40;20066;-65
2021/04/03 04:21:42;;;;;;;26.70;9.02;;;2.10;99.90;;;;;;3542022;40;20073;-65
2021/04/03 04:24:08;;;;;;;33.97;9.20;;;2.00;99.90;;;;;;3544388;40;20113;-65
2021/04/03 04:26:38;;;;;;;24.65;8.50;;;1.90;99.90;;;;;;3542366;40;20208;-65
2021/04/03 04:29:03;;;;;;;28.77;8.93;;;1.90;99.90;;;;;;3543344;40;20414;-65
2021/04/03 04:31:31;;;;;;;38.17;9.63;;;1.90;99.90;;;;;;3535140;40;20061;-65
2021/04/03 04:34:04;;;;;;;28.05;8.25;;;2.00;99.90;;;;;;3539414;40;20824;-65
2021/04/03 04:36:31;;;;;;;29.88;8.85;;;1.90;99.90;;;;;;3538643;40;20067;-65
2021/04/03 04:38:57;;;;;;;35.58;9.90;;;2.00;99.90;;;;;;3539739;40;20171;-65
2021/04/03 04:41:26;;;;;;;29.20;9.60;;;2.00;99.90;;;;;;3536538;40;20062;-65
2021/04/03 04:43:53;;;;;;;38.13;9.52;;;2.00;99.90;;;;;;3541371;40;20507;-65
2021/04/03 04:46:19;;;;;;;40.05;9.50;;;2.00;99.90;;;;;;3541154;40;20054;-65
2021/04/03 04:48:51;;;;;;;25.23;9.00;;;2.00;99.90;;;;;;3540693;40;20332;-65
2021/04/03 04:51:22;;;;;;;32.08;9.18;;;1.90;99.90;;;;;;3549664;40;20082;-65
2021/04/03 04:53:52;;;;;;;31.17;8.85;;;1.90;99.90;;;;;;3542558;40;20062;-65
2021/04/03 04:56:23;;;;;;;31.63;9.57;;;1.90;99.90;;;;;;3537857;40;20104;-65
2021/04/03 04:58:49;;;;;;;30.50;9.23;;;1.90;99.90;;;;;;3538922;40;20600;-65
2021/04/03 05:01:19;;;;;;;29.23;9.38;;;1.90;99.90;;;;;;3536011;40;20421;-65
2021/04/03 05:03:46;;;;;;;34.97;10.02;;;1.90;99.90;;;;;;3543176;40;20082;-65
2021/04/03 05:06:12;;;;;;;35.05;9.10;;;1.90;99.90;;;;;;3541470;40;20213;-65
2021/04/03 05:08:38;;;;;;;27.95;8.93;;;1.90;99.90;;;;;;3542222;40;20082;-65
2021/04/03 05:11:04;;;;;;;31.90;9.27;;;1.90;99.90;;;;;;3542447;40;20082;-65
2021/04/03 05:13:30;;;;;;;47.72;10.10;;;2.00;99.90;;;;;;3539437;40;20167;-65
2021/04/03 05:15:56;;;;;;;39.53;10.68;;;2.10;99.90;;;;;;3541030;40;20062;-67
2021/04/03 05:18:22;;;;;;;39.42;10.70;;;2.20;99.90;;;;;;3541876;40;20077;-65
2021/04/03 05:20:49;;;;;;;45.20;11.77;;;2.30;99.90;;;;;;3544554;40;20073;-65
2021/04/03 05:23:21;;;;;;;38.72;11.55;;;2.40;99.90;;;;;;3541330;40;20192;-65
2021/04/03 05:25:47;;;;;;;41.90;11.75;;;2.50;99.90;;;;;;3541165;40;20628;-65
2021/04/03 05:28:16;;;;;;;50.40;12.50;;;2.60;99.90;;;;;;3539788;40;20161;-65
2021/04/03 05:30:42;;;;;;;55.88;12.07;;;2.70;99.90;;;;;;3552874;40;20070;-64
2021/04/03 05:33:08;;;;;;;43.80;12.35;;;2.70;99.90;;;;;;3544681;40;20143;-65
2021/04/03 05:35:34;;;;;;;43.70;11.90;;;2.70;99.90;;;;;;3544733;40;20066;-63
2021/04/03 05:38:00;;;;;;;38.10;11.10;;;2.70;99.90;;;;;;3535818;40;20065;-63
2021/04/03 05:40:26;;;;;;;36.75;11.10;;;2.80;99.90;;;;;;3542791;40;20066;-63
2021/04/03 05:42:53;;;;;;;48.60;12.60;;;2.80;99.90;;;;;;3544111;40;20074;-63
2021/04/03 05:45:19;;;;;;;42.40;11.43;;;2.90;99.90;;;;;;3543393;40;20347;-63
2021/04/03 05:47:46;;;;;;;33.38;9.82;;;2.90;99.90;;;;;;3540588;40;20492;-63
2021/04/03 05:50:12;;;;;;;45.25;12.77;;;3.00;99.90;;;;;;3542364;40;20058;-64
2021/04/03 05:52:40;;;;;;;36.60;11.80;;;3.10;99.90;;;;;;3542557;40;20181;-64
2021/04/03 05:55:07;;;;;;;37.80;11.00;;;3.20;99.90;;;;;;3546046;40;20172;-63
2021/04/03 05:57:32;;;;;;;30.83;9.70;;;3.30;99.90;;;;;;3537113;40;20078;-65
2021/04/03 05:59:58;;;;;;;44.72;15.43;;;3.40;99.90;;;;;;3543906;40;20062;-64
2021/04/03 06:02:24;;;;;;;31.75;10.30;;;3.30;99.90;;;;;;3543265;40;20157;-63
2021/04/03 06:04:53;;;;;;;34.78;15.10;;;3.40;99.90;;;;;;3544239;40;20097;-63
2021/04/03 06:07:19;;;;;;;28.90;9.98;;;3.40;99.90;;;;;;3541268;40;20074;-63
2021/04/03 06:09:46;;;;;;;24.83;9.63;;;3.50;99.90;;;;;;3545691;40;20188;-63
2021/04/03 06:12:12;;;;;;;29.83;9.30;;;3.50;99.90;;;;;;3539237;40;20073;-64
2021/04/03 06:14:39;;;;;;;22.17;8.05;;;3.70;99.90;;;;;;3545464;40;20066;-64
2021/04/03 06:17:04;;;;;;;25.42;11.18;;;3.90;99.90;;;;;;3543961;40;20074;-63
2021/04/03 06:19:32;;;;;;;21.63;7.80;;;4.10;99.90;;;;;;3547516;40;20114;-63
2021/04/03 06:22:00;;;;;;;27.95;7.93;;;4.30;99.90;;;;;;3542369;40;20824;-63
2021/04/03 06:24:29;;;;;;;29.80;10.65;;;4.40;99.90;;;;;;3543796;40;20063;-63
2021/04/03 06:26:59;;;;;;;20.80;7.68;;;4.60;99.90;;;;;;3545093;40;20785;-63
2021/04/03 06:29:31;;;;;;;23.70;8.10;;;4.70;99.90;;;;;;3543523;40;20815;-64
2021/04/03 06:31:58;;;;;;;22.42;7.75;;;4.70;99.90;;;;;;3540321;40;20082;-63
2021/04/03 06:34:26;;;;;;;19.92;7.82;;;4.70;99.90;;;;;;3541185;40;20086;-63
2021/04/03 06:36:51;;;;;;;29.30;11.13;;;4.80;99.90;;;;;;3543990;40;20055;-64
2021/04/03 06:39:17;;;;;;;18.65;6.38;;;4.80;99.90;;;;;;3543073;40;20054;-64
2021/04/03 06:41:43;;;;;;;21.30;7.53;;;4.80;99.90;;;;;;3544277;40;20068;-63
2021/04/03 06:44:10;;;;;;;22.52;7.50;;;4.90;99.90;;;;;;3542741;40;20062;-64
2021/04/03 06:46:43;;;;;;;14.63;6.72;;;5.00;99.90;;;;;;3542538;40;20410;-63
2021/04/03 06:49:10;;;;;;;13.95;5.85;;;5.10;99.90;;;;;;3542502;40;20058;-63
2021/04/03 06:51:36;;;;;;;20.25;8.65;;;5.20;99.90;;;;;;3540874;40;20447;-64
2021/04/03 06:54:04;;;;;;;16.85;6.97;;;5.20;99.90;;;;;;3540478;40;20175;-64
2021/04/03 06:56:36;;;;;;;10.60;4.53;;;5.40;99.90;;;;;;3546912;40;20062;-64
2021/04/03 06:59:13;;;;;;;14.35;5.13;;;5.60;99.90;;;;;;3541493;40;20156;-64
2021/04/03 07:01:58;;;;;;;12.30;5.20;;;5.60;99.90;;;;;;3544110;40;20054;-64
2021/04/03 07:04:37;;;;;;;15.60;5.60;;;5.80;99.90;;;;;;3541487;40;20069;-64
2021/04/03 07:07:03;;;;;;;21.73;10.05;;;5.90;99.90;;;;;;3542671;40;20292;-64
2021/04/03 07:09:30;;;;;;;11.45;4.05;;;6.10;99.90;;;;;;3536616;40;20161;-63
2021/04/03 07:11:55;;;;;;;20.90;7.57;;;6.30;99.90;;;;;;3541299;40;20070;-64
2021/04/03 07:14:22;;;;;;;10.07;4.47;;;6.30;99.90;;;;;;3541198;40;20062;-64
2021/04/03 07:16:50;;;;;;;36.92;14.68;;;6.40;99.90;;;;;;3543679;40;20092;-63
2021/04/03 07:19:17;;;;;;;21.10;7.85;;;6.50;99.90;;;;;;3542537;40;20141;-64
2021/04/03 07:21:43;;;;;;;14.57;6.28;;;6.70;99.90;;;;;;3536800;40;20090;-64
2021/04/03 07:24:16;;;;;;;16.90;7.93;;;6.80;99.90;;;;;;3542898;40;20063;-64
2021/04/03 07:26:43;;;;;;;18.23;6.28;;;6.90;99.90;;;;;;3540907;40;20059;-64
2021/04/03 07:29:29;;;;;;;17.63;6.57;;;7.00;99.90;;;;;;3539618;40;20091;-67
2021/04/03 07:31:55;;;;;;;14.07;5.63;;;7.10;99.90;;;;;;3547356;40;20074;-63
2021/04/03 07:34:38;;;;;;;21.83;8.27;;;7.10;99.90;;;;;;3544505;40;20068;-63
2021/04/03 07:37:07;;;;;;;9.73;3.78;;;7.20;99.90;;;;;;3542467;40;20071;-63
2021/04/03 07:39:35;;;;;;;6.50;2.70;;;7.30;99.90;;;;;;3542913;40;20066;-63
2021/04/03 07:42:01;;;;;;;6.45;3.03;;;7.40;99.90;;;;;;3541840;40;20196;-63
2021/04/03 07:44:34;;;;;;;8.75;2.88;;;7.50;99.90;;;;;;3546115;40;20917;-63
2021/04/03 07:47:21;;;;;;;9.70;3.60;;;7.80;99.90;;;;;;3544600;40;20403;-63
2021/04/03 07:49:47;;;;;;;5.22;2.40;;;8.10;99.90;;;;;;3542895;40;20059;-63
2021/04/03 07:52:13;;;;;;;6.80;2.50;;;8.20;99.90;;;;;;3541465;40;20066;-63
2021/04/03 07:54:39;;;;;;;7.72;2.50;;;8.60;99.90;;;;;;3542857;40;20379;-63
2021/04/03 07:57:08;;;;;;;6.60;2.50;;;8.80;99.90;;;;;;3535620;40;20063;-63
2021/04/03 07:59:42;;;;;;;4.85;1.80;;;9.00;99.90;;;;;;3540811;40;20069;-63
2021/04/03 08:02:22;;;;;;;3.90;1.70;;;8.90;99.90;;;;;;3537536;40;20090;-64
2021/04/03 08:04:48;;;;;;;6.53;3.10;;;9.30;99.70;;;;;;3540210;40;20054;-64
2021/04/03 08:07:14;;;;;;;3.30;1.75;;;9.60;98.80;;;;;;3537662;40;20993;-64
2021/04/03 08:09:40;;;;;;;7.97;1.80;;;9.70;98.80;;;;;;3543782;40;20895;-63
2021/04/03 08:12:07;;;;;;;3.58;1.70;;;9.80;98.80;;;;;;3536389;40;20102;-63
2021/04/03 08:14:34;;;;;;;3.90;2.05;;;10.10;94.90;;;;;;3545007;40;20085;-63
2021/04/03 08:17:01;;;;;;;6.85;1.80;;;10.10;97.40;;;;;;3542222;40;20248;-63
2021/04/03 08:19:33;;;;;;;4.22;1.83;;;10.00;95.10;;;;;;3543573;40;20156;-63
2021/04/03 08:21:59;;;;;;;5.45;1.85;;;10.00;96.10;;;;;;3541592;40;20153;-63
2021/04/03 08:24:25;;;;;;;4.05;1.30;;;10.20;93.60;;;;;;3539136;40;20086;-63
2021/04/03 08:26:52;;;;;;;4.07;1.48;;;10.30;94.80;;;;;;3542040;40;20074;-62
2021/04/03 08:29:25;;;;;;;5.15;1.40;;;10.40;86.20;;;;;;3541501;40;20070;-63
2021/04/03 08:31:52;;;;;;;6.20;1.30;;;10.60;86.10;;;;;;3539188;40;20071;-63
2021/04/03 08:34:19;;;;;;;3.22;1.27;;;10.90;80.90;;;;;;3541752;40;20066;-63
2021/04/03 08:36:46;;;;;;;8.27;1.80;;;11.10;83.00;;;;;;3540814;40;20073;-63
2021/04/03 08:39:14;;;;;;;2.67;1.38;;;10.90;85.40;;;;;;3537988;40;20070;-63
2021/04/03 08:41:42;;;;;;;4.38;1.92;;;10.80;79.20;;;;;;3540349;40;20069;-63
2021/04/03 08:44:21;;;;;;;3.70;1.27;;;10.80;78.20;;;;;;3541551;40;20272;-62
2021/04/03 08:46:51;;;;;;;5.50;1.65;;;10.50;75.30;;;;;;3541693;40;20074;-63
2021/04/03 08:49:24;;;;;;;4.05;1.48;;;10.80;76.80;;;;;;3543672;40;20082;-63
2021/04/03 08:51:50;;;;;;;5.97;1.55;;;10.90;76.00;;;;;;3542029;40;20107;-63
2021/04/03 08:54:17;;;;;;;2.85;1.40;;;11.10;74.40;;;;;;3545244;40;20059;-66
2021/04/03 08:56:42;;;;;;;3.63;1.23;;;11.10;75.40;;;;;;3545146;40;20072;-63
2021/04/03 08:59:13;;;;;;;2.67;1.17;;;11.40;69.90;;;;;;3543253;40;20058;-63
2021/04/03 09:01:45;;;;;;;5.05;1.60;;;11.70;69.80;;;;;;3544520;40;20712;-62
2021/04/03 09:04:11;;;;;;;3.67;1.25;;;11.80;70.10;;;;;;3537891;40;20087;-62
2021/04/03 09:06:50;;;;;;;2.15;1.13;;;11.80;66.70;;;;;;3540527;40;20055;-64
2021/04/03 09:09:15;;;;;;;2.97;1.17;;;11.80;65.80;;;;;;3552799;40;20062;-63
2021/04/03 09:12:05;;;;;;;2.40;1.23;;;11.60;66.30;;;;;;3543042;40;20769;-64
2021/04/03 09:14:35;;;;;;;5.63;1.52;;;11.70;67.50;;;;;;3540412;40;20086;-64
2021/04/03 09:17:03;;;;;;;10.57;3.17;;;11.70;64.60;;;;;;3542599;40;20537;-63
2021/04/03 09:19:29;;;;;;;2.78;1.40;;;11.80;66.90;;;;;;3542068;40;20733;-64
2021/04/03 09:21:57;;;;;;;2.58;0.90;;;11.90;64.60;;;;;;3543015;40;20070;-63
2021/04/03 09:24:40;;;;;;;3.00;1.17;;;12.10;60.30;;;;;;3542631;40;20584;-64
2021/04/03 09:27:20;;;;;;;4.35;1.17;;;12.00;61.90;;;;;;3547260;40;20074;-63
2021/04/03 09:29:53;;;;;;;1.95;0.88;;;11.80;61.50;;;;;;3543421;40;20164;-63
2021/04/03 09:32:19;;;;;;;4.38;0.93;;;11.60;62.60;;;;;;3543829;40;20077;-63
2021/04/03 09:34:45;;;;;;;3.95;1.10;;;11.90;63.50;;;;;;3541505;40;20066;-64
2021/04/03 09:37:19;;;;;;;4.50;1.02;;;12.20;61.10;;;;;;3541557;40;20739;-64
2021/04/03 09:39:55;;;;;;;3.13;1.10;;;12.30;60.00;;;;;;3538808;40;20086;-64
2021/04/03 09:42:25;;;;;;;3.20;0.80;;;12.30;57.20;;;;;;3542348;40;20426;-64
2021/04/03 09:44:54;;;;;;;3.38;0.70;;;12.00;59.00;;;;;;3541350;40;20070;-68
2021/04/03 09:47:21;;;;;;;4.03;1.30;;;12.20;59.40;;;;;;3540444;40;20058;-69
2021/04/03 09:49:47;;;;;;;3.05;0.90;;;12.30;56.10;;;;;;3537134;40;20426;-68
2021/04/03 09:52:14;;;;;;;4.75;1.20;;;12.20;59.10;;;;;;3539658;40;20081;-68
2021/04/03 09:54:41;;;;;;;2.15;0.82;;;11.70;58.30;;;;;;3541692;40;20076;-69
2021/04/03 09:57:08;;;;;;;4.88;0.80;;;11.80;58.90;;;;;;3538057;40;20720;-69
2021/04/03 09:59:33;;;;;;;2.45;1.15;;;12.30;58.80;;;;;;3541220;40;20082;-63
2021/04/03 10:02:00;;;;;;;1.98;0.80;;;12.50;56.80;;;;;;3541833;40;20871;-63
2021/04/03 10:04:26;;;;;;;3.25;0.85;;;12.50;58.70;;;;;;3545549;40;20942;-63
2021/04/03 10:06:53;;;;;;;4.60;0.88;;;13.20;56.90;;;;;;3544182;40;20054;-63
2021/04/03 10:09:19;;;;;;;4.15;1.20;;;13.40;55.10;;;;;;3539009;40;20078;-63
2021/04/03 10:11:45;;;;;;;2.50;0.90;;;12.80;55.30;;;;;;3543909;40;20105;-63
2021/04/03 10:14:12;;;;;;;2.17;0.98;;;12.30;55.80;;;;;;3544825;40;20783;-63
2021/04/03 10:16:38;;;;;;;4.47;1.48;;;12.30;57.90;;;;;;3545258;40;20151;-64
2021/04/03 10:19:04;;;;;;;1.88;0.90;;;12.20;57.10;;;;;;3540345;40;20180;-63
2021/04/03 10:21:29;;;;;;;1.52;0.88;;;12.00;56.80;;;;;;3545103;40;20745;-65
2021/04/03 10:23:55;;;;;;;2.85;1.10;;;12.00;59.30;;;;;;3543962;40;20055;-63
2021/04/03 10:26:21;;;;;;;3.40;0.70;;;12.40;58.90;;;;;;3542426;40;20054;-64
2021/04/03 10:28:47;;;;;;;3.00;0.70;;;12.90;55.90;;;;;;3542570;40;20074;-64
2021/04/03 10:31:13;;;;;;;2.60;0.90;;;13.00;54.20;;;;;;3544221;40;20081;-63
2021/04/03 10:33:39;;;;;;;2.03;1.10;;;12.80;54.90;;;;;;3545100;40;20080;-63
2021/04/03 10:36:06;;;;;;;4.70;0.90;;;12.10;55.90;;;;;;3539916;40;20078;-63
2021/04/03 10:38:33;;;;;;;2.00;0.70;;;11.70;56.40;;;;;;3543637;40;20086;-64
2021/04/03 10:41:00;;;;;;;4.00;0.98;;;11.60;58.10;;;;;;3545052;40;20074;-65
2021/04/03 10:43:26;;;;;;;1.88;0.90;;;11.80;58.30;;;;;;3545669;40;20086;-65
2021/04/03 10:45:52;;;;;;;3.35;1.13;;;11.80;57.10;;;;;;3542098;40;20067;-64
2021/04/03 10:48:18;;;;;;;4.15;0.80;;;11.40;60.10;;;;;;3537205;40;20172;-64
2021/04/03 10:50:44;;;;;;;2.72;0.65;;;11.60;57.80;;;;;;3540176;40;20078;-64
2021/04/03 10:53:10;;;;;;;4.28;0.95;;;11.60;57.70;;;;;;3539133;40;20070;-64
2021/04/03 10:55:37;;;;;;;2.25;0.80;;;11.80;58.90;;;;;;3542199;40;20078;-64
2021/04/03 10:58:03;;;;;;;6.50;1.15;;;11.70;59.70;;;;;;3543441;40;20062;-64
2021/04/03 11:00:29;;;;;;;2.00;0.60;;;11.70;57.70;;;;;;3539338;40;20168;-64
2021/04/03 11:02:55;;;;;;;4.75;0.90;;;11.50;60.50;;;;;;3539546;40;20634;-65
2021/04/03 11:05:22;;;;;;;5.35;1.20;;;11.50;58.20;;;;;;3544667;40;20059;-64
2021/04/03 11:07:49;;;;;;;1.25;0.60;;;11.20;60.10;;;;;;3544974;40;20078;-64
2021/04/03 11:10:15;;;;;;;1.90;0.63;;;11.30;60.40;;;;;;3543102;40;20066;-64
2021/04/03 11:12:41;;;;;;;3.38;0.80;;;11.10;60.50;;;;;;3542753;40;20085;-65
2021/04/03 11:15:08;;;;;;;12.07;5.65;;;11.20;60.50;;;;;;3540523;40;20070;-64
2021/04/03 11:17:34;;;;;;;2.22;0.60;;;11.20;60.40;;;;;;3543432;40;20146;-64
2021/04/03 11:20:00;;;;;;;3.88;0.75;;;11.30;57.90;;;;;;3544315;40;20057;-64
2021/04/03 11:22:26;;;;;;;3.33;0.82;;;11.30;58.40;;;;;;3537935;40;20067;-64
2021/04/03 11:24:52;;;;;;;1.38;0.80;;;11.10;59.50;;;;;;3543762;40;20076;-64
2021/04/03 11:27:18;;;;;;;7.50;3.80;;;11.10;60.40;;;;;;3542825;40;20073;-64
2021/04/03 11:29:44;;;;;;;5.43;3.42;;;11.70;60.30;;;;;;3543391;40;20132;-63
2021/04/03 11:32:09;;;;;;;7.32;1.98;;;12.50;57.30;;;;;;3541625;40;20161;-65
2021/04/03 11:34:35;;;;;;;12.13;3.20;;;12.60;57.10;;;;;;3540022;40;20050;-63
2021/04/03 11:37:01;;;;;;;11.20;4.18;;;12.90;55.40;;;;;;3542307;40;20232;-64
2021/04/03 11:39:27;;;;;;;4.13;1.42;;;12.90;55.00;;;;;;3536583;40;20477;-63
2021/04/03 11:41:52;;;;;;;4.30;2.35;;;12.80;53.40;;;;;;3542022;40;20073;-65
2021/04/03 11:44:18;;;;;;;2.55;1.30;;;12.60;54.90;;;;;;3541362;40;20324;-64
2021/04/03 11:46:44;;;;;;;2.78;1.20;;;12.60;55.30;;;;;;3541500;40;20059;-64
2021/04/03 11:49:09;;;;;;;4.60;1.00;;;12.10;57.00;;;;;;3540308;40;20093;-64
2021/04/03 11:51:36;;;;;;;8.23;4.72;;;12.20;55.60;;;;;;3543223;40;20058;-63
2021/04/03 11:54:01;;;;;;;4.45;2.42;;;12.20;54.00;;;;;;3541826;40;20153;-64
2021/04/03 11:56:27;;;;;;;3.15;1.15;;;12.40;54.80;;;;;;3542223;40;20074;-64
2021/04/03 11:58:53;;;;;;;8.23;4.97;;;13.00;52.60;;;;;;3546058;40;20058;-64
2021/04/03 12:01:19;;;;;;;5.22;3.22;;;13.50;49.70;;;;;;3539307;40;20058;-63
2021/04/03 12:03:45;;;;;;;8.18;5.20;;;14.00;48.60;;;;;;3541253;40;20172;-63
2021/04/03 12:06:10;;;;;;;5.07;2.88;;;14.80;47.10;;;;;;3541428;40;20181;-64
2021/04/03 12:08:36;;;;;;;3.22;0.60;;;14.20;46.50;;;;;;3543991;40;20424;-64
2021/04/03 12:11:02;;;;;;;4.25;1.88;;;14.00;47.40;;;;;;3545493;40;20093;-64
2021/04/03 12:13:28;;;;;;;2.03;0.70;;;13.10;49.50;;;;;;3545031;40;20173;-63
2021/04/03 12:15:54;;;;;;;6.38;3.15;;;12.70;51.80;;;;;;3544025;40;20058;-64
2021/04/03 12:18:20;;;;;;;17.92;4.43;;;12.60;51.80;;;;;;3544357;40;20068;-64
2021/04/03 12:20:45;;;;;;;2.92;1.13;;;12.50;52.90;;;;;;3546395;40;20078;-64
2021/04/03 12:23:11;;;;;;;2.83;1.48;;;12.40;54.00;;;;;;3542909;40;20066;-64
2021/04/03 12:25:37;;;;;;;4.30;1.35;;;12.20;54.30;;;;;;3545368;40;20062;-64
2021/04/03 12:28:03;;;;;;;3.97;2.30;;;12.10;54.90;;;;;;3536575;40;20062;-65
2021/04/03 12:30:30;;;;;;;4.18;1.80;;;12.70;55.40;;;;;;3540652;40;20058;-63
2021/04/03 12:32:56;;;;;;;4.18;1.67;;;14.00;53.30;;;;;;3539960;40;20806;-63
2021/04/03 12:35:22;;;;;;;4.53;1.23;;;15.70;49.10;;;;;;3543157;40;20156;-64
2021/04/03 12:37:48;;;;;;;5.88;2.40;;;15.30;47.20;;;;;;3541816;40;20153;-64
2021/04/03 12:40:14;;;;;;;7.10;3.63;;;15.40;50.00;;;;;;3542217;40;20193;-63
2021/04/03 12:42:40;;;;;;;2.78;1.40;;;15.80;47.40;;;;;;3535541;40;20405;-64
2021/04/03 12:45:08;;;;;;;2.22;1.10;;;15.50;46.20;;;;;;3542239;40;20169;-64
2021/04/03 12:47:34;;;;;;;6.25;1.70;;;14.40;47.10;;;;;;3543184;40;20165;-63
2021/04/03 12:50:00;;;;;;;3.00;1.23;;;14.00;46.50;;;;;;3542932;40;20078;-63
2021/04/03 12:52:25;;;;;;;1.80;0.90;;;13.90;48.60;;;;;;3539889;40;20857;-63